Informes de METARS cercanos

 

LEAL - Alicante/El Alte, Spain
Distance from station: SSE 60km
Actualización: 15/12/2018 10:30
Despejado
Despejado
 Viento del O
Viento: O 20 km/h
Temperatura: 14°C
Rocío: 4°C
Humedad: 51%
Barómetro: 1025 hPa
Resumen: Despejado
Visibility: greater than 10 km
2018/12/15 09:30 LEAL 150930Z 26011KT 240V300 CAVOK 14/04 Q1025 NOSIG
LEVC - Valencia (civ/Mi, Spain
Distance from station: NNE 84km
Actualización: 15/12/2018 10:30
Despejado
Despejado
 Viento del OSO
Viento: OSO 11 km/h
Temperatura: 13°C
Rocío: 5°C
Humedad: 59%
Barómetro: 1024 hPa
Resumen: Despejado
Visibility: greater than 10 km
2018/12/15 09:30 LEVC 150930Z 25006KT CAVOK 13/05 Q1024 NOSIG
 
LEAB - Albacete (civ/Mi, Spain
Distance from station: O 95km
Actualización: 15/12/2018 10:00
Despejado
Despejado
 Viento del N
Viento: N 13 km/h
Temperatura: 4°C
Wind Chill: 1°C
Rocío: 2°C
Humedad: 87%
Barómetro: 1027 hPa
Resumen: Despejado
Visibility: greater than 10 km
2018/12/15 09:00 LEAB 150900Z 35007KT 320V020 CAVOK 04/02 Q1027 NOSIG
LERI - Alcantarilla(Sp-, Spain
Distance from station: SSO 100km
Actualización: 15/12/2018 10:00
Despejado
Despejado
 Viento del OSO
Viento: OSO 6 km/h
Temperatura: 9°C
Rocío: 3°C
Humedad: 66%
Barómetro: 1026 hPa
Resumen: Despejado
Visibility: greater than 10 km
2018/12/15 09:00 LERI 150900Z 25003KT 210V280 CAVOK 09/03 Q1026 NOSIG
 
LELC - San Javier(Mil/C, Spain
Distance from station: S 113km
Actualización: 15/12/2018 10:30
Despejado
Despejado
 Viento del O
Viento: O 11 km/h
Temperatura: 13°C
Rocío: 3°C
Humedad: 51%
Barómetro: 1026 hPa
Resumen: Despejado
Visibility: greater than 10 km
2018/12/15 09:30 LELC 150930Z 27006KT CAVOK 13/03 Q1026 NOSIG
LEIB - Ibiza/Es Codola, Spain
Distance from station: E 186km
Actualización: 15/12/2018 10:30
Despejado
Despejado
 Viento del O
Viento: O 19 km/h
Temperatura: 14°C
Rocío: 7°C
Humedad: 63%
Barómetro: 1024 hPa
Resumen: Despejado
Visibility: greater than 10 km
2018/12/15 09:30 LEIB 150930Z 28010KT 250V310 CAVOK 14/07 Q1024 NOSIG
 
LEAM - Almeria Airport, Spain
Distance from station: SSO 256km
Actualización: 15/12/2018 10:30
Despejado
Despejado
 Viento del NO
Viento: NO 7 km/h
Temperatura: 15°C
Rocío: -1°C
Humedad: 34%
Barómetro: 1026 hPa
Resumen: Despejado
Visibility: greater than 10 km
2018/12/15 09:30 LEAM 150930Z 31004KT CAVOK 15/M01 Q1026
LEMD - Madrid/Barajas, Spain
Distance from station: NO 305km
Actualización: 15/12/2018 10:30
Parcialmente nuboso
Parcialmente nuboso
 Viento del SE
Viento: SE 4 km/h
Temperatura: 4°C
Rocío: 2°C
Humedad: 87%
Barómetro: 1027 hPa
Clouds: Parcialmente nuboso
Visibility: 9 km
Cloud details: Few Clouds 183 m
Parcialmente nuboso 1676 m
2018/12/15 09:30 LEMD 150930Z 14002KT 9000 FEW006 SCT055 04/02 Q1027 NOSIG
 
LEPA - Palma De Mallorc, Spain
Distance from station: ENE 313km
Actualización: 15/12/2018 10:30
Few Clouds
Few Clouds
 Viento del O
Viento: O 15 km/h
Temperatura: 15°C
Rocío: 9°C
Humedad: 68%
Barómetro: 1023 hPa
Clouds: Few Clouds
Visibility: 10 km
Cloud details: Few Clouds 610 m
2018/12/15 09:30 LEPA 150930Z 27008KT 9999 FEW020 15/09 Q1023 NOSIG